Raiford, Florida
Current Conditions -  °F | °C
As of 6:55 PM on Monday 20 Oct 2014 (Local Time) from KLCQ Reporting Station
Clear Clear  
Wind Chill: 70°   Ceiling: Unl
Heat Index: 70°   Visibility: 10mi
Dew Point: 64°   Wind: 0mph
Humidity: 83%   Direction: NA
Pressure: 29.96"   Gusts: NA
Location:  30.06°N, 82.24°W
Report Text: KLCQ 202255Z AUTO 00000KT 10SM CLR 21/18 A2996 RMK AO2
Loading
Personal Weather Stations






























Interactive Weather Map
Tropical Storm Tracking
New forecast layout! Learn more

10-Day Weather Forecast

Advertisements
Track Severe Weather on mobile